Aérodrome :
LOGIN :

S'inscrire | Disclaimer

   EN    FR    IT 

 










Légende :    VFR   VFR Marginal   IFR   IFR Intensif   IFR Très Intensif
Visi : 
Plafond : 
>= 8 km
>= 3000ft
5 à 8 km
1000 à 3000 ft
1500m à 5 km
500 à 1000 ft
800 à 1500m
200 à 500 ft
< 800m
< 200 ft
Symboles :   Orages  Brouillard  Fortes neiges  Fortes précipitations  Vent > 20 kt
SIGMETs :   Divers  Orages  Givrage  Turbulence  Onde Orograph.  Cendres Volcan.







- Altitude de l'aérodrome : 1187 ft


LIBV - Gioia del Colle Bari

DERNIER METAR :
  • 210955Z 16011KT CAVOK 16/07 Q1022 RMK OVC SCT120 BKN160 VIS MIN 9999 WIND THR32 18009KT WIND THR14 16010KT BLU

METARs EXPIRÉS :
  • 210855Z 16008KT CAVOK 16/05 Q1022 RMK OVC FEW120 BKN160 VIS MIN 9999 WIND THR32 16008KT WIND THR14 17007KT BLU
  • 210755Z 16008KT CAVOK 16/04 Q1021 RMK BKN FEW120 BKN160 VIS MIN 9999 WIND THR32 15008KT WIND THR14 16008KT BLU

TAF TAF LIBV
Valide du 21 à 09h jusqu'au 21 à 18h UTC


210800Z 2109/2118 18012KT CAVOK
TEMPO 2116/2118 6000 SCT050
Pas de NOTAMs connus pour ce terrain.



MET'MAP, la Météo Aéronautique d'un coup d'oeil ! - Copyright ORBIFLY Décembre 2007 - Disclaimer

ORBIFLY MET'MAP TEAM :

Programmation & Développement : Alexandra Zaïnal
Conception & Développement : Baudouin d'Aumeries
Co-Programmation & Développement : Marc-Olivier Méhu
Soutien technique & logistique : Manuel Goepfert

Contact : metmap@orbifly.com




SOURCES & CREDITS :

   NOAA